createdAt,value
2022-11-28T00:01:43.868Z,64.53
2022-11-28T00:04:12.386Z,64.58
2022-11-28T00:06:46.310Z,64.67
2022-11-28T00:09:15.291Z,64.69
2022-11-28T00:11:45.489Z,64.65
2022-11-28T00:14:13.684Z,64.56
2022-11-28T00:16:42.059Z,64.40
2022-11-28T00:19:12.090Z,64.38
2022-11-28T00:21:40.930Z,64.52
2022-11-28T00:24:09.940Z,64.73
2022-11-28T00:26:40.719Z,64.73
2022-11-28T00:29:09.377Z,64.62
2022-11-28T00:31:43.018Z,64.60
2022-11-28T00:34:13.675Z,64.74
2022-11-28T00:36:44.209Z,64.46
2022-11-28T00:39:12.320Z,64.43
2022-11-28T00:41:40.333Z,64.38
2022-11-28T00:44:08.614Z,64.34
2022-11-28T00:46:36.336Z,64.43
2022-11-28T00:49:04.562Z,64.62
2022-11-28T00:51:33.911Z,64.59
2022-11-28T00:54:03.065Z,64.78
2022-11-28T00:56:33.663Z,64.81
2022-11-28T00:59:01.533Z,64.95
2022-11-28T01:01:30.709Z,64.96
2022-11-28T01:04:00.617Z,65.12
2022-11-28T01:06:34.559Z,64.90
2022-11-28T01:09:06.854Z,65.09
2022-11-28T01:11:37.217Z,65.34
2022-11-28T01:14:05.404Z,65.31
2022-11-28T01:16:33.473Z,65.40
2022-11-28T01:19:01.394Z,65.32
2022-11-28T01:21:29.146Z,65.38
2022-11-28T01:23:57.012Z,65.05
2022-11-28T01:26:27.522Z,64.90
2022-11-28T01:28:56.403Z,64.74
2022-11-28T01:31:27.328Z,64.81
2022-11-28T01:33:56.367Z,64.96
2022-11-28T01:36:25.746Z,65.30
2022-11-28T01:38:54.641Z,65.26
2022-11-28T01:41:27.841Z,65.15
2022-11-28T01:44:15.654Z,65.16
2022-11-28T01:46:44.134Z,65.15
2022-11-28T01:49:15.711Z,65.00
2022-11-28T01:51:48.122Z,65.00
2022-11-28T01:54:19.014Z,64.95
2022-11-28T01:57:01.664Z,64.99
2022-11-28T01:59:33.869Z,64.87
2022-11-28T02:02:05.297Z,64.87
2022-11-28T02:04:34.455Z,64.89
2022-11-28T02:07:02.494Z,64.91
2022-11-28T02:09:30.384Z,64.99
2022-11-28T02:12:09.973Z,65.03
2022-11-28T02:14:46.890Z,65.00
2022-11-28T02:17:35.667Z,65.16
2022-11-28T02:20:25.574Z,65.05
2022-11-28T02:23:20.997Z,65.43
2022-11-28T02:26:08.749Z,65.68
2022-11-28T02:28:39.714Z,65.74
2022-11-28T02:31:26.709Z,65.67
2022-11-28T02:34:00.031Z,65.49
2022-11-28T02:36:36.092Z,65.53
2022-11-28T02:39:19.499Z,65.55
2022-11-28T02:42:12.347Z,65.73
2022-11-28T02:44:57.476Z,66.08
2022-11-28T02:47:38.793Z,66.05
2022-11-28T02:50:28.825Z,66.08
2022-11-28T02:52:59.223Z,66.19
2022-11-28T02:55:27.878Z,66.16
2022-11-28T02:57:55.893Z,65.90
2022-11-28T03:00:31.245Z,65.93
2022-11-28T03:03:01.868Z,65.99
2022-11-28T03:05:39.317Z,65.82
2022-11-28T03:08:39.945Z,65.78
2022-11-28T03:11:16.876Z,65.57
2022-11-28T03:13:47.667Z,65.65
2022-11-28T03:16:27.017Z,65.68
2022-11-28T03:19:19.305Z,65.51
2022-11-28T03:21:46.965Z,65.22
2022-11-28T03:24:38.125Z,65.08
2022-11-28T03:27:13.808Z,65.05
2022-11-28T03:29:54.184Z,65.08
2022-11-28T03:32:30.481Z,65.15
2022-11-28T03:35:05.202Z,65.09
2022-11-28T03:37:38.366Z,64.94
2022-11-28T03:40:13.897Z,64.80
2022-11-28T03:42:47.573Z,65.09
2022-11-28T03:45:20.921Z,65.19
2022-11-28T03:47:57.169Z,65.33
2022-11-28T03:50:36.749Z,65.19
2022-11-28T03:53:20.645Z,65.17
2022-11-28T03:55:56.985Z,65.20
2022-11-28T03:58:28.174Z,65.20
2022-11-28T04:01:20.200Z,65.19
2022-11-28T04:03:58.170Z,65.00
2022-11-28T04:06:37.956Z,64.89
2022-11-28T04:09:14.184Z,64.92
2022-11-28T04:11:54.355Z,64.97
2022-11-28T04:14:31.715Z,64.93
2022-11-28T04:17:14.041Z,64.89
2022-11-28T04:19:43.144Z,65.16
2022-11-28T04:22:16.361Z,65.37
2022-11-28T04:24:48.026Z,65.41
2022-11-28T04:27:23.478Z,65.31
2022-11-28T04:29:53.686Z,65.35
2022-11-28T04:32:23.536Z,65.54
2022-11-28T04:34:56.451Z,65.36
2022-11-28T04:37:28.117Z,65.25
2022-11-28T04:39:56.856Z,65.21
2022-11-28T04:42:36.154Z,65.03
2022-11-28T04:45:13.573Z,65.27
2022-11-28T04:47:42.952Z,65.25
2022-11-28T04:50:13.561Z,65.30
2022-11-28T04:52:59.794Z,65.28
2022-11-28T04:55:38.320Z,65.37
2022-11-28T04:58:28.418Z,65.32
2022-11-28T05:00:58.206Z,65.05
2022-11-28T05:03:30.843Z,64.85
2022-11-28T05:05:58.773Z,64.74
2022-11-28T05:08:26.589Z,64.43
2022-11-28T05:10:54.552Z,64.31
2022-11-28T05:13:22.358Z,64.24
2022-11-28T05:15:50.098Z,64.28
2022-11-28T05:18:17.804Z,64.54
2022-11-28T05:20:45.622Z,64.49
2022-11-28T05:23:13.455Z,64.16
2022-11-28T05:25:41.436Z,64.13
2022-11-28T05:28:09.346Z,64.03
2022-11-28T05:30:37.096Z,63.96
2022-11-28T05:33:04.807Z,64.18
2022-11-28T05:35:32.852Z,64.31
2022-11-28T05:38:00.645Z,64.28
2022-11-28T05:40:28.425Z,64.24
2022-11-28T05:42:56.185Z,64.14
2022-11-28T05:45:24.508Z,64.21
2022-11-28T05:47:52.340Z,64.17
2022-11-28T05:50:20.090Z,64.06
2022-11-28T05:52:47.857Z,63.84
2022-11-28T05:55:15.835Z,64.03
2022-11-28T05:57:43.515Z,64.09
2022-11-28T06:00:12.310Z,64.14
2022-11-28T06:02:40.140Z,64.07
2022-11-28T06:05:34.784Z,63.94
2022-11-28T06:07:55.779Z,64.07
2022-11-28T06:10:23.690Z,64.26
2022-11-28T06:12:51.636Z,64.27
2022-11-28T06:15:19.390Z,64.36
2022-11-28T06:17:47.162Z,64.30
2022-11-28T06:20:15.102Z,64.19
2022-11-28T06:22:42.955Z,64.15
2022-11-28T06:25:10.773Z,64.08
2022-11-28T06:27:38.501Z,64.09
2022-11-28T06:30:07.551Z,64.15
2022-11-28T06:32:35.543Z,64.15
2022-11-28T06:35:03.470Z,64.13
2022-11-28T06:37:31.247Z,64.28
2022-11-28T06:39:59.429Z,64.42
2022-11-28T06:42:27.308Z,64.44
2022-11-28T06:44:55.135Z,64.27
2022-11-28T06:47:23.036Z,64.26
2022-11-28T06:49:50.854Z,64.37
2022-11-28T06:52:18.711Z,64.32
2022-11-28T06:54:46.622Z,64.24
2022-11-28T06:57:14.473Z,64.25
2022-11-28T06:59:43.473Z,64.27
2022-11-28T07:02:11.779Z,64.38
2022-11-28T07:04:39.770Z,64.35
2022-11-28T07:07:07.809Z,64.12
2022-11-28T07:09:35.671Z,63.97
2022-11-28T07:12:03.500Z,63.83
2022-11-28T07:14:33.637Z,64.09
2022-11-28T07:17:01.509Z,64.16
2022-11-28T07:19:29.218Z,64.16
2022-11-28T07:21:57.050Z,64.40
2022-11-28T07:24:24.890Z,64.43
2022-11-28T07:26:52.717Z,64.43
2022-11-28T07:29:20.558Z,64.42
2022-11-28T07:31:48.549Z,64.61
2022-11-28T07:34:16.846Z,64.74
2022-11-28T07:36:44.667Z,64.75
2022-11-28T07:39:16.169Z,64.75
2022-11-28T07:41:43.946Z,64.87
2022-11-28T07:44:13.233Z,64.85
2022-11-28T07:46:41.066Z,64.79
2022-11-28T07:49:08.979Z,64.89
2022-11-28T07:51:36.867Z,64.83
2022-11-28T07:54:06.080Z,64.82
2022-11-28T07:57:10.651Z,64.86
2022-11-28T07:59:24.930Z,64.80
2022-11-28T08:01:54.118Z,64.81
2022-11-28T08:04:23.069Z,64.73
2022-11-28T08:06:51.050Z,64.84
2022-11-28T08:09:19.575Z,65.10
2022-11-28T08:11:47.553Z,65.20
2022-11-28T08:14:15.447Z,65.48
2022-11-28T08:16:45.225Z,65.59
2022-11-28T08:19:13.949Z,65.72
2022-11-28T08:21:41.734Z,65.73
2022-11-28T08:24:10.910Z,65.73
2022-11-28T08:26:38.797Z,65.71
2022-11-28T08:29:06.701Z,65.82
2022-11-28T08:31:38.349Z,65.86
2022-11-28T08:34:08.547Z,66.03
2022-11-28T08:36:36.703Z,66.16
2022-11-28T08:41:59.755Z,66.24
2022-11-28T08:44:30.476Z,66.13
2022-11-28T08:46:58.940Z,66.06
2022-11-28T08:49:26.829Z,65.94
2022-11-28T08:51:54.729Z,65.95
2022-11-28T08:54:22.557Z,65.78
2022-11-28T08:56:50.450Z,65.69
2022-11-28T08:59:18.332Z,65.44
2022-11-28T09:01:46.257Z,65.42
2022-11-28T09:04:14.198Z,65.52
2022-11-28T09:06:42.416Z,65.55
2022-11-28T09:09:10.288Z,65.48
2022-11-28T09:11:38.283Z,65.49
2022-11-28T09:14:06.613Z,65.53
2022-11-28T09:16:34.538Z,65.63
2022-11-28T09:19:02.418Z,65.73
2022-11-28T09:21:30.186Z,65.73
2022-11-28T09:23:58.011Z,65.76
2022-11-28T09:26:26.210Z,65.74
2022-11-28T09:28:54.877Z,65.73
2022-11-28T09:31:23.465Z,65.69
2022-11-28T09:33:51.710Z,65.55
2022-11-28T09:36:22.236Z,65.48
2022-11-28T09:38:51.006Z,65.45
2022-11-28T09:41:40.354Z,65.59
2022-11-28T09:44:34.543Z,65.61
2022-11-28T09:47:05.952Z,65.63
2022-11-28T09:49:48.654Z,65.46
2022-11-28T09:52:38.934Z,65.54
2022-11-28T09:55:30.952Z,65.42
2022-11-28T09:58:05.672Z,65.26
2022-11-28T10:00:36.595Z,65.25
2022-11-28T10:03:07.229Z,65.33
2022-11-28T10:05:42.572Z,65.17
2022-11-28T10:08:36.074Z,65.07
2022-11-28T10:11:30.487Z,64.90
2022-11-28T10:14:26.758Z,65.04
2022-11-28T10:17:00.781Z,65.09
2022-11-28T10:19:54.710Z,65.15
2022-11-28T10:22:30.788Z,65.04
2022-11-28T10:25:04.817Z,65.04
2022-11-28T10:27:36.249Z,64.88
2022-11-28T10:30:15.896Z,64.88
2022-11-28T10:32:53.716Z,64.88
2022-11-28T10:35:28.332Z,64.76
2022-11-28T10:37:56.731Z,64.67
2022-11-28T10:40:54.759Z,64.67
2022-11-28T10:43:37.462Z,64.54
2022-11-28T10:46:11.344Z,64.59
2022-11-28T10:49:05.253Z,64.25
2022-11-28T10:51:51.322Z,64.00
2022-11-28T10:55:02.868Z,63.69
2022-11-28T10:57:43.181Z,63.23
2022-11-28T11:00:21.281Z,63.14
2022-11-28T11:02:54.886Z,63.28
2022-11-28T11:05:28.792Z,63.10
2022-11-28T11:07:58.542Z,62.83
2022-11-28T11:10:38.737Z,62.61
2022-11-28T11:13:16.739Z,62.39
2022-11-28T11:15:46.169Z,62.35
2022-11-28T11:18:37.398Z,62.58
2022-11-28T11:21:15.868Z,62.37
2022-11-28T11:23:45.234Z,61.75
2022-11-28T11:26:27.502Z,61.72
2022-11-28T11:28:56.525Z,61.60
2022-11-28T11:31:41.910Z,61.33
2022-11-28T11:34:17.041Z,61.18
2022-11-28T11:36:46.380Z,61.06
2022-11-28T11:39:14.143Z,60.93
2022-11-28T11:41:45.253Z,60.92
2022-11-28T11:44:20.521Z,60.95
2022-11-28T11:46:57.090Z,61.09
2022-11-28T11:49:32.613Z,61.30
2022-11-28T11:52:22.933Z,61.44
2022-11-28T11:54:57.235Z,61.52
2022-11-28T11:57:37.936Z,61.54
2022-11-28T12:00:22.570Z,61.44
2022-11-28T12:03:05.102Z,61.18
2022-11-28T12:06:12.832Z,60.81
2022-11-28T12:09:04.266Z,61.12
2022-11-28T12:11:56.602Z,61.12
2022-11-28T12:14:29.030Z,61.11
2022-11-28T12:17:46.675Z,60.45
2022-11-28T12:20:12.652Z,60.43
2022-11-28T12:22:55.887Z,60.16
2022-11-28T12:25:39.181Z,60.08
2022-11-28T12:28:13.990Z,60.08
2022-11-28T12:31:00.774Z,60.02
2022-11-28T12:33:43.507Z,60.03
2022-11-28T12:36:18.127Z,60.06
2022-11-28T12:39:24.499Z,59.99
2022-11-28T12:42:16.624Z,60.11
2022-11-28T12:44:52.476Z,59.57
2022-11-28T12:47:48.507Z,59.32
2022-11-28T12:50:28.740Z,59.50
2022-11-28T12:53:15.476Z,59.91
2022-11-28T12:56:08.375Z,59.71
2022-11-28T12:58:43.948Z,59.58
2022-11-28T13:01:13.397Z,59.36
2022-11-28T13:03:52.454Z,59.56
2022-11-28T13:06:35.123Z,59.53
2022-11-28T13:09:24.373Z,59.30
2022-11-28T13:11:58.308Z,59.21
2022-11-28T13:14:48.047Z,59.21
2022-11-28T13:17:36.015Z,59.28
2022-11-28T13:20:31.773Z,59.27
2022-11-28T13:23:28.704Z,58.97
2022-11-28T13:26:05.323Z,58.52
2022-11-28T13:29:07.684Z,58.04
2022-11-28T13:32:04.418Z,57.77
2022-11-28T13:34:33.004Z,57.53
2022-11-28T13:40:24.466Z,56.27
2022-11-28T13:43:11.145Z,56.33
2022-11-28T13:45:44.032Z,56.40
2022-11-28T13:48:57.529Z,56.51
2022-11-28T13:51:30.592Z,56.63
2022-11-28T13:54:31.781Z,56.09
2022-11-28T13:57:21.517Z,55.69
2022-11-28T14:00:01.815Z,55.49
2022-11-28T14:02:56.433Z,55.56
2022-11-28T14:05:36.022Z,55.67
2022-11-28T14:08:05.906Z,55.60
2022-11-28T14:10:49.391Z,55.88
2022-11-28T14:13:56.061Z,56.14
2022-11-28T14:16:38.652Z,56.69
2022-11-28T14:19:22.642Z,57.13
2022-11-28T14:21:57.044Z,57.15
2022-11-28T14:24:24.732Z,57.50
2022-11-28T14:27:03.677Z,57.64
2022-11-28T14:29:38.977Z,57.97
2022-11-28T14:32:30.107Z,58.33
2022-11-28T14:35:00.215Z,58.70
2022-11-28T14:37:29.436Z,58.84
2022-11-28T14:39:58.154Z,59.07
2022-11-28T14:42:58.228Z,59.19
2022-11-28T14:45:32.734Z,59.28
2022-11-28T14:48:18.074Z,59.36
2022-11-28T14:50:47.437Z,59.27
2022-11-28T14:53:37.339Z,59.28
2022-11-28T14:56:28.066Z,59.25
2022-11-28T14:59:01.002Z,59.34
2022-11-28T15:01:54.383Z,59.57
2022-11-28T15:04:45.728Z,59.72
2022-11-28T15:07:28.345Z,59.75
2022-11-28T15:10:14.848Z,59.78
2022-11-28T15:13:01.350Z,59.68
2022-11-28T15:15:30.076Z,59.66
2022-11-28T15:18:00.986Z,59.69
2022-11-28T15:20:36.576Z,59.78
2022-11-28T15:23:04.383Z,59.86
2022-11-28T15:25:37.481Z,59.75
2022-11-28T15:28:15.564Z,59.64
2022-11-28T15:30:47.175Z,59.87
2022-11-28T15:33:15.506Z,59.84
2022-11-28T15:36:10.807Z,59.72
2022-11-28T15:38:42.507Z,59.77
2022-11-28T15:41:11.285Z,59.90
2022-11-28T15:43:45.604Z,59.96
2022-11-28T15:46:21.880Z,60.14
2022-11-28T15:48:52.594Z,60.23
2022-11-28T15:51:29.647Z,60.44
2022-11-28T15:53:59.837Z,60.79
2022-11-28T15:56:27.598Z,60.79
2022-11-28T15:58:55.610Z,60.83
2022-11-28T16:01:25.883Z,60.99
2022-11-28T16:04:07.608Z,60.98
2022-11-28T16:06:39.313Z,61.15
2022-11-28T16:09:23.267Z,61.44
2022-11-28T16:11:53.131Z,61.90
2022-11-28T16:14:33.395Z,62.37
2022-11-28T16:17:05.327Z,62.58
2022-11-28T16:19:36.677Z,62.77
2022-11-28T16:22:06.131Z,62.90
2022-11-28T16:24:55.460Z,63.12
2022-11-28T16:27:42.590Z,63.46
2022-11-28T16:30:22.920Z,63.85
2022-11-28T16:32:52.962Z,63.85
2022-11-28T16:35:30.921Z,63.98
2022-11-28T16:38:17.768Z,64.14
2022-11-28T16:40:47.735Z,64.01
2022-11-28T16:43:31.278Z,64.11
2022-11-28T16:46:01.438Z,64.21
2022-11-28T16:48:34.637Z,64.33
2022-11-28T16:51:02.571Z,64.26
2022-11-28T16:53:51.187Z,64.43
2022-11-28T16:56:43.784Z,64.51
2022-11-28T16:59:16.560Z,64.76
2022-11-28T17:01:52.369Z,64.83
2022-11-28T17:04:24.885Z,64.88
2022-11-28T17:06:55.046Z,64.92
2022-11-28T17:09:23.234Z,64.89
2022-11-28T17:11:55.723Z,65.07
2022-11-28T17:14:23.860Z,65.15
2022-11-28T17:16:51.951Z,65.19
2022-11-28T17:19:19.765Z,65.29
2022-11-28T17:21:50.665Z,65.34
2022-11-28T17:24:22.248Z,65.70
2022-11-28T17:26:51.828Z,65.78
2022-11-28T17:29:20.655Z,65.72
2022-11-28T17:31:49.146Z,65.76
2022-11-28T17:34:25.309Z,65.78
2022-11-28T17:36:54.001Z,65.88
2022-11-28T17:39:21.972Z,65.94
2022-11-28T17:41:49.924Z,65.98
2022-11-28T17:44:22.213Z,66.16
2022-11-28T17:46:52.123Z,66.03
2022-11-28T17:49:20.868Z,65.98
2022-11-28T17:51:50.004Z,66.20
2022-11-28T17:54:21.109Z,66.14
2022-11-28T17:56:51.640Z,66.26
2022-11-28T17:59:22.116Z,66.32
2022-11-28T18:01:49.947Z,66.41
2022-11-28T18:04:23.540Z,66.46
2022-11-28T18:06:53.791Z,66.56
2022-11-28T18:09:26.915Z,66.73
2022-11-28T18:11:54.867Z,66.62
2022-11-28T18:14:22.806Z,66.77
2022-11-28T18:16:51.044Z,66.66
2022-11-28T18:19:19.183Z,66.62
2022-11-28T18:21:47.118Z,66.60
2022-11-28T18:24:15.994Z,66.60
2022-11-28T18:26:43.894Z,66.67
2022-11-28T18:29:11.868Z,66.72
2022-11-28T18:31:40.302Z,66.69
2022-11-28T18:34:09.733Z,66.78
2022-11-28T18:36:39.139Z,66.93
2022-11-28T18:39:11.538Z,66.99
2022-11-28T18:41:43.017Z,67.07
2022-11-28T18:44:11.095Z,67.26
2022-11-28T18:46:39.127Z,67.09
2022-11-28T18:49:08.448Z,67.27
2022-11-28T18:51:37.786Z,67.36
2022-11-28T18:54:06.387Z,67.44
2022-11-28T18:56:35.354Z,67.24
2022-11-28T18:59:04.323Z,67.43
2022-11-28T19:01:34.488Z,67.31
2022-11-28T19:04:07.086Z,67.42
2022-11-28T19:06:37.337Z,67.64
2022-11-28T19:09:06.533Z,67.77
2022-11-28T19:11:35.745Z,67.86
2022-11-28T19:14:04.296Z,68.02
2022-11-28T19:16:35.610Z,68.14
2022-11-28T19:19:06.004Z,67.94
2022-11-28T19:21:36.955Z,67.71
2022-11-28T19:24:08.205Z,67.63
2022-11-28T19:26:37.414Z,67.61
2022-11-28T19:29:22.774Z,67.46
2022-11-28T19:49:19.816Z,68.70
2022-11-28T19:51:50.459Z,67.85
2022-11-28T19:54:21.977Z,67.39
2022-11-28T19:56:51.276Z,67.03
2022-11-28T19:59:19.499Z,66.89
2022-11-28T20:01:49.975Z,66.85
2022-11-28T20:04:18.484Z,66.71
2022-11-28T20:06:46.791Z,66.68
2022-11-28T20:09:15.208Z,66.67
2022-11-28T20:11:44.624Z,66.71
2022-11-28T20:14:23.457Z,66.74
2022-11-28T20:17:05.629Z,66.85
2022-11-28T20:19:35.431Z,66.95
2022-11-28T20:22:04.259Z,66.96
2022-11-28T20:24:33.957Z,67.00
2022-11-28T20:27:02.354Z,67.03
2022-11-28T20:29:30.759Z,67.16
2022-11-28T20:32:00.518Z,67.32
2022-11-28T20:34:29.033Z,67.42
2022-11-28T20:36:59.439Z,67.63
2022-11-28T20:39:32.139Z,67.59
2022-11-28T20:42:07.090Z,67.59
2022-11-28T20:44:35.193Z,67.41
2022-11-28T20:47:03.456Z,67.30
2022-11-28T20:49:31.994Z,67.33
2022-11-28T20:52:06.798Z,67.49
2022-11-28T20:54:35.259Z,67.61
2022-11-28T20:57:20.912Z,67.46
2022-11-28T20:59:51.444Z,67.64
2022-11-28T21:02:19.699Z,67.70
2022-11-28T21:04:48.206Z,67.72
2022-11-28T21:07:16.501Z,67.81
2022-11-28T21:09:45.105Z,67.89
2022-11-28T21:12:16.676Z,68.00
2022-11-28T21:14:47.788Z,68.12
2022-11-28T21:17:16.002Z,68.09
2022-11-28T21:19:46.633Z,68.13
2022-11-28T21:22:15.035Z,68.13
2022-11-28T21:24:45.120Z,68.25
2022-11-28T21:27:17.913Z,68.38
2022-11-28T21:29:46.457Z,68.37
2022-11-28T21:32:16.287Z,68.42
2022-11-28T21:34:45.008Z,68.40
2022-11-28T21:37:13.382Z,68.49
2022-11-28T21:39:41.640Z,68.53
2022-11-28T21:42:10.203Z,68.53
2022-11-28T21:44:53.586Z,68.68
2022-11-28T21:47:21.706Z,68.66
2022-11-28T21:49:49.777Z,68.80
2022-11-28T21:52:23.773Z,68.91
2022-11-28T21:54:52.124Z,68.90
2022-11-28T21:57:24.182Z,68.74
2022-11-28T21:59:54.490Z,68.64
2022-11-28T22:02:27.643Z,68.67
2022-11-28T22:05:16.497Z,68.47
2022-11-28T22:07:45.458Z,68.43
2022-11-28T22:10:13.903Z,68.39
2022-11-28T22:12:41.852Z,68.42
2022-11-28T22:15:11.915Z,68.38
2022-11-28T22:17:41.186Z,68.44
2022-11-28T22:20:16.208Z,68.60
2022-11-28T22:22:44.963Z,68.61
2022-11-28T22:25:14.519Z,68.53
2022-11-28T22:27:42.749Z,68.63
2022-11-28T22:30:13.619Z,68.64
2022-11-28T22:32:42.495Z,68.83
2022-11-28T22:35:10.843Z,68.86
2022-11-28T22:37:39.602Z,68.81
2022-11-28T22:40:08.099Z,68.75
2022-11-28T22:42:36.069Z,68.79
2022-11-28T22:45:08.050Z,68.79
2022-11-28T22:47:39.905Z,68.61
2022-11-28T22:50:11.209Z,68.68
2022-11-28T22:52:39.749Z,68.63
2022-11-28T22:55:17.803Z,68.59
2022-11-28T22:58:11.330Z,68.55
2022-11-28T23:00:47.376Z,68.66
2022-11-28T23:03:18.934Z,68.66
2022-11-28T23:05:49.321Z,68.61
2022-11-28T23:08:18.878Z,68.64
2022-11-28T23:10:48.311Z,68.58
2022-11-28T23:13:50.834Z,68.48
2022-11-28T23:17:41.167Z,68.33
2022-11-28T23:20:09.521Z,68.27
2022-11-28T23:22:37.342Z,68.17
2022-11-28T23:25:05.766Z,68.06
2022-11-28T23:27:33.724Z,67.95
2022-11-28T23:30:02.048Z,67.93
2022-11-28T23:32:30.265Z,67.90
2022-11-28T23:35:00.257Z,68.01
2022-11-28T23:37:28.636Z,67.95
2022-11-28T23:39:56.493Z,68.02
2022-11-28T23:42:24.390Z,67.82
2022-11-28T23:44:52.194Z,67.95
2022-11-28T23:47:19.936Z,68.01
2022-11-28T23:49:47.736Z,68.06
2022-11-28T23:52:15.617Z,68.12
2022-11-28T23:54:43.891Z,68.14
2022-11-28T23:57:11.831Z,68.22
2022-11-28T23:59:39.826Z,68.18
